Portada
METAR-TAF:

METAR-TAF

Aeropuertos :

Pago Pago, Islas Ultramarinas Menores de Estados Unidos

Aeropuerto Internacional de Pago Pago

latitud: 14-20S, longitud: 170-43W, altitud: 3 m

Observación

El informe se hizo hace 15 minutos, a las 01:50 UTC
Viento 5 kt con dirección variable
Temperatura 29°C
Humedad 84%
Presión 1008 hPa
Visibilidad: 19.3 km
Escasas nubes a una altura de 1700 ft, Cumulus congestus.

METAR: NSTU 230150Z VRB05KT 12SM FEW017TCU 29/26 A2977 RMK TCU NW-NE SLP081 T02930257

Hora: 15:05 (02:05 UTC)

Pronóstico

El informe se hizo hace 2 horas y 36 minutos, a las 23:29 UTC
Pronóstico válido del 23 a las 00 UTC al 23 a las 24 UTC
Viento 5 kt del sureste
Visibilidad: 10 km
Nubes dispersas a una altura de 2000 ft
Nubes dispersas a una altura de 4500 ft

TAF: NSTU 222329Z 2300/2324 14005KT P6SM SCT020 SCT045

Observaciones y pronósticos meteorológicos de más de 4000 aeropuertos (mensajes METAR y TAF).

Los puntos amarillos y rojos representan las estaciones disponibles.

Ponga el ratón en el punto deseado para ver el nombre de la estación.

Haga clic para ver las observaciones y los pronósticos meteorológicos.

Para cambiar el mapa : haga clic en los botones verdes con una cruz de color negro para hacer un zoom, en el botón verde con un guión para alejar o en las flechas verdes para mapas adyacentes.


METAR-TAF: